KALI/ALI METAR and TAF weather

Enter ICAO airport designator
Station Type Date Time Source
KALI METAR 2024/07/23 17:53 UTC NOAA

KALI 231753Z AUTO 20007KT 10SM FEW040 33/22 A2998 RMK AO2 SLP149 T03330222 10333 20239 58008


Station Type Date Time Source
KALI Decoded METAR 2024/07/23 17:53 UTC NOAA

ALICE INTERNATIONAL AIRPORT, TX, United States (KALI) 27-44N 098-01W 53M
Jul 23, 2024 - 01:53 PM EDT / 2024.07.23 1753 UTC
Wind: from the SSW (200 degrees) at 8 MPH (7 KT):0
Visibility: 10 mile(s):0
Sky conditions: mostly clear
Temperature: 91.9 F (33.3 C)
Heat index: 99.5 F (37.5 C):1
Dew Point: 72.0 F (22.2 C)
Relative Humidity: 52%
Pressure (altimeter): 29.98 in. Hg (1015 hPa)
Pressure tendency: 0.02 inches (0.8 hPa) lower than three hours ago
ob: KALI 231753Z AUTO 20007KT 10SM FEW040 33/22 A2998 RMK AO2 SLP149 T03330222 10333 20239 58008
cycle: 18

Station Type Date Time Source
KALI TAF 2024/07/23 18:51 UTC NOAA